createdAt,value
2023-03-19T00:00:29.568Z,2.70
2023-03-19T00:02:57.330Z,4.80
2023-03-19T00:05:24.717Z,4.57
2023-03-19T00:07:52.045Z,2.00
2023-03-19T00:10:19.531Z,1.40
2023-03-19T00:12:46.963Z,0.70
2023-03-19T00:15:15.724Z,0.70
2023-03-19T00:17:43.495Z,0.70
2023-03-19T00:20:12.474Z,0.80
2023-03-19T00:22:40.388Z,0.80
2023-03-19T00:25:08.804Z,0.87
2023-03-19T00:27:37.662Z,1.30
2023-03-19T00:30:06.825Z,1.73
2023-03-19T00:32:34.402Z,2.23
2023-03-19T00:35:02.606Z,2.87
2023-03-19T00:37:31.279Z,3.23
2023-03-19T00:39:58.798Z,3.17
2023-03-19T00:42:26.410Z,3.70
2023-03-19T00:44:53.718Z,3.73
2023-03-19T00:47:21.501Z,3.30
2023-03-19T00:49:49.301Z,1.00
2023-03-19T00:52:16.762Z,1.20
2023-03-19T00:54:44.319Z,2.23
2023-03-19T00:57:11.845Z,0.80
2023-03-19T00:59:39.094Z,0.70
2023-03-19T01:02:06.495Z,1.10
2023-03-19T01:04:33.817Z,2.80
2023-03-19T01:07:01.605Z,3.00
2023-03-19T01:09:28.949Z,3.80
2023-03-19T01:11:56.172Z,3.17
2023-03-19T01:14:23.548Z,3.40
2023-03-19T01:16:50.796Z,3.50
2023-03-19T01:19:18.103Z,1.07
2023-03-19T01:21:46.805Z,0.80
2023-03-19T01:24:14.655Z,1.60
2023-03-19T01:26:42.358Z,1.03
2023-03-19T01:29:10.092Z,0.67
2023-03-19T01:31:37.606Z,0.70
2023-03-19T01:34:05.001Z,2.60
2023-03-19T01:36:32.547Z,3.43
2023-03-19T01:38:59.852Z,3.80
2023-03-19T01:41:27.586Z,6.73
2023-03-19T01:43:54.901Z,3.53
2023-03-19T01:46:32.084Z,2.97
2023-03-19T01:49:01.769Z,2.97
2023-03-19T01:51:36.864Z,3.13
2023-03-19T01:54:07.249Z,2.43
2023-03-19T01:56:37.163Z,2.50
2023-03-19T01:59:22.098Z,2.47
2023-03-19T02:02:26.252Z,1.20
2023-03-19T02:04:59.310Z,3.30
2023-03-19T02:07:27.662Z,4.00
2023-03-19T02:09:55.096Z,3.33
2023-03-19T02:12:22.399Z,2.70
2023-03-19T02:14:49.731Z,1.10
2023-03-19T02:17:17.472Z,0.77
2023-03-19T02:19:51.949Z,0.90
2023-03-19T02:22:22.562Z,1.40
2023-03-19T02:24:56.192Z,1.93
2023-03-19T02:27:23.538Z,2.93
2023-03-19T02:29:50.749Z,2.73
2023-03-19T02:32:18.044Z,1.47
2023-03-19T02:34:46.328Z,0.63
2023-03-19T02:37:19.221Z,0.60
2023-03-19T02:39:58.850Z,0.73
2023-03-19T02:42:28.678Z,4.60
2023-03-19T02:44:56.716Z,3.80
2023-03-19T02:47:25.625Z,3.10
2023-03-19T02:49:53.172Z,2.50
2023-03-19T02:52:20.857Z,1.80
2023-03-19T02:54:48.863Z,1.40
2023-03-19T02:57:16.649Z,0.90
2023-03-19T02:59:44.205Z,0.80
2023-03-19T03:02:11.824Z,1.00
2023-03-19T03:04:39.137Z,0.90
2023-03-19T03:07:06.525Z,1.43
2023-03-19T03:09:34.063Z,2.80
2023-03-19T03:12:01.567Z,2.93
2023-03-19T03:14:28.996Z,2.83
2023-03-19T03:16:57.746Z,3.30
2023-03-19T03:19:25.059Z,3.53
2023-03-19T03:21:52.498Z,4.20
2023-03-19T03:24:19.850Z,1.47
2023-03-19T03:26:47.274Z,0.80
2023-03-19T03:29:14.751Z,0.63
2023-03-19T03:31:42.259Z,0.60
2023-03-19T03:34:10.523Z,0.80
2023-03-19T03:36:37.831Z,0.80
2023-03-19T03:39:05.280Z,2.03
2023-03-19T03:41:32.469Z,3.40
2023-03-19T03:43:59.719Z,2.77
2023-03-19T03:46:26.935Z,4.10
2023-03-19T03:48:54.402Z,4.20
2023-03-19T03:51:22.524Z,2.57
2023-03-19T03:53:50.098Z,1.10
2023-03-19T03:56:17.664Z,0.87
2023-03-19T03:58:45.219Z,0.70
2023-03-19T04:01:19.443Z,0.70
2023-03-19T04:03:46.926Z,0.63
2023-03-19T04:06:19.691Z,0.77
2023-03-19T04:08:47.574Z,0.70
2023-03-19T04:11:15.576Z,0.70
2023-03-19T04:13:42.922Z,1.00
2023-03-19T04:16:11.313Z,0.70
2023-03-19T04:18:39.207Z,1.07
2023-03-19T04:21:07.421Z,1.50
2023-03-19T04:23:34.936Z,2.90
2023-03-19T04:26:04.608Z,3.13
2023-03-19T04:28:31.891Z,3.23
2023-03-19T04:31:04.972Z,2.90
2023-03-19T04:33:33.016Z,3.57
2023-03-19T04:36:00.749Z,3.00
2023-03-19T04:38:28.829Z,3.03
2023-03-19T04:40:56.828Z,3.37
2023-03-19T04:43:24.996Z,4.17
2023-03-19T04:45:52.774Z,2.27
2023-03-19T04:48:20.302Z,1.30
2023-03-19T04:50:52.158Z,1.00
2023-03-19T04:53:22.930Z,1.27
2023-03-19T04:55:50.546Z,1.27
2023-03-19T04:58:17.956Z,1.00
2023-03-19T05:00:47.753Z,1.00
2023-03-19T05:03:16.431Z,1.57
2023-03-19T05:05:43.789Z,0.90
2023-03-19T05:08:11.805Z,0.80
2023-03-19T05:10:39.367Z,1.00
2023-03-19T05:13:07.357Z,1.27
2023-03-19T05:15:34.758Z,2.73
2023-03-19T05:18:02.234Z,3.37
2023-03-19T05:20:29.489Z,9.40
2023-03-19T05:22:56.680Z,3.63
2023-03-19T05:25:23.942Z,4.70
2023-03-19T05:27:51.301Z,3.27
2023-03-19T05:30:18.956Z,0.97
2023-03-19T05:32:47.636Z,1.03
2023-03-19T05:35:15.374Z,0.73
2023-03-19T05:37:42.682Z,1.10
2023-03-19T05:40:11.138Z,0.87
2023-03-19T05:42:38.599Z,0.80
2023-03-19T05:45:06.231Z,1.93
2023-03-19T05:47:34.392Z,3.23
2023-03-19T05:50:01.831Z,3.17
2023-03-19T05:52:29.122Z,3.27
2023-03-19T05:54:56.382Z,3.80
2023-03-19T05:57:23.813Z,3.53
2023-03-19T05:59:51.528Z,4.00
2023-03-19T06:02:19.057Z,1.47
2023-03-19T06:04:46.711Z,1.00
2023-03-19T06:07:14.277Z,0.73
2023-03-19T06:09:42.363Z,1.87
2023-03-19T06:12:09.792Z,0.80
2023-03-19T06:14:37.097Z,0.90
2023-03-19T06:17:04.725Z,2.50
2023-03-19T06:19:32.276Z,3.13
2023-03-19T06:21:59.566Z,3.03
2023-03-19T06:24:27.267Z,3.37
2023-03-19T06:26:54.551Z,4.17
2023-03-19T06:29:21.775Z,2.67
2023-03-19T06:31:49.131Z,1.57
2023-03-19T06:34:16.972Z,0.70
2023-03-19T06:36:44.501Z,0.90
2023-03-19T06:39:11.901Z,0.90
2023-03-19T06:41:39.203Z,1.23
2023-03-19T06:44:07.110Z,1.37
2023-03-19T06:46:34.471Z,2.67
2023-03-19T06:49:01.636Z,3.07
2023-03-19T06:51:29.195Z,2.70
2023-03-19T06:53:57.031Z,3.43
2023-03-19T06:56:24.331Z,3.03
2023-03-19T06:58:51.672Z,3.03
2023-03-19T07:01:19.413Z,1.20
2023-03-19T07:03:46.824Z,1.00
2023-03-19T07:06:14.400Z,0.90
2023-03-19T07:08:46.554Z,1.40
2023-03-19T07:11:14.639Z,0.90
2023-03-19T07:13:42.104Z,1.10
2023-03-19T07:16:09.760Z,0.80
2023-03-19T07:18:37.316Z,1.17
2023-03-19T07:21:04.853Z,3.70
2023-03-19T07:23:32.275Z,3.27
2023-03-19T07:25:59.511Z,3.43
2023-03-19T07:28:26.694Z,4.10
2023-03-19T07:30:54.546Z,3.53
2023-03-19T07:33:22.233Z,2.80
2023-03-19T07:35:49.946Z,1.73
2023-03-19T07:38:17.372Z,0.90
2023-03-19T07:40:54.766Z,2.10
2023-03-19T07:43:28.454Z,3.43
2023-03-19T07:45:55.639Z,3.17
2023-03-19T07:48:23.059Z,2.90
2023-03-19T07:50:53.533Z,1.47
2023-03-19T07:53:20.930Z,2.30
2023-03-19T07:55:49.080Z,1.60
2023-03-19T07:58:17.339Z,0.70
2023-03-19T08:00:45.655Z,1.33
2023-03-19T08:03:13.426Z,4.10
2023-03-19T08:05:41.088Z,0.67
2023-03-19T08:08:09.093Z,0.60
2023-03-19T08:10:38.454Z,1.43
2023-03-19T08:13:07.230Z,1.30
2023-03-19T08:15:35.457Z,2.37
2023-03-19T08:18:04.327Z,3.03
2023-03-19T08:20:32.527Z,2.70
2023-03-19T08:23:00.063Z,2.80
2023-03-19T08:25:27.915Z,4.00
2023-03-19T08:27:55.218Z,3.07
2023-03-19T08:30:22.644Z,1.97
2023-03-19T08:32:50.945Z,1.50
2023-03-19T08:35:18.563Z,1.20
2023-03-19T08:37:46.775Z,0.70
2023-03-19T08:40:14.315Z,0.70
2023-03-19T08:42:45.103Z,0.77
2023-03-19T08:45:14.176Z,0.80
2023-03-19T08:47:41.782Z,0.63
2023-03-19T08:50:09.502Z,0.80
2023-03-19T08:52:37.090Z,1.17
2023-03-19T08:55:05.075Z,2.03
2023-03-19T08:57:32.847Z,2.70
2023-03-19T09:00:00.500Z,2.70
2023-03-19T09:02:28.017Z,3.60
2023-03-19T09:04:55.354Z,3.33
2023-03-19T09:07:22.857Z,1.47
2023-03-19T09:09:49.996Z,1.00
2023-03-19T09:12:18.398Z,0.80
2023-03-19T09:14:45.781Z,0.60
2023-03-19T09:17:14.170Z,0.60
2023-03-19T09:19:42.511Z,0.70
2023-03-19T09:22:09.982Z,0.67
2023-03-19T09:24:40.072Z,1.07
2023-03-19T09:27:07.976Z,0.70
2023-03-19T09:29:35.388Z,1.63
2023-03-19T09:32:02.877Z,2.30
2023-03-19T09:34:30.371Z,2.87
2023-03-19T09:36:57.628Z,3.37
2023-03-19T09:39:24.953Z,3.00
2023-03-19T09:42:10.256Z,1.90
2023-03-19T09:44:40.069Z,0.80
2023-03-19T09:47:24.206Z,0.87
2023-03-19T09:49:53.698Z,2.47
2023-03-19T09:52:48.306Z,1.67
2023-03-19T09:55:38.193Z,0.80
2023-03-19T09:58:15.467Z,1.60
2023-03-19T10:00:43.522Z,0.60
2023-03-19T10:03:37.562Z,0.60
2023-03-19T10:06:37.284Z,1.87
2023-03-19T10:09:42.437Z,2.07
2023-03-19T10:12:23.736Z,0.77
2023-03-19T10:15:12.780Z,1.67
2023-03-19T10:17:58.484Z,0.60
2023-03-19T10:20:41.417Z,2.10
2023-03-19T10:23:27.180Z,0.60
2023-03-19T10:25:57.745Z,2.97
2023-03-19T10:28:29.038Z,2.57
2023-03-19T10:31:08.162Z,2.20
2023-03-19T10:34:13.774Z,1.53
2023-03-19T10:36:41.249Z,0.50
2023-03-19T10:39:08.487Z,0.80
2023-03-19T10:41:48.907Z,1.47
2023-03-19T10:44:37.372Z,0.60
2023-03-19T10:47:12.688Z,1.93
2023-03-19T10:49:40.612Z,0.70
2023-03-19T10:52:18.529Z,0.80
2023-03-19T10:54:46.758Z,0.63
2023-03-19T10:57:27.538Z,0.60
2023-03-19T10:59:55.277Z,2.67
2023-03-19T11:02:28.308Z,1.30
2023-03-19T11:05:16.012Z,2.17
2023-03-19T11:07:43.793Z,0.60
2023-03-19T11:10:15.967Z,0.60
2023-03-19T11:12:49.373Z,0.60
2023-03-19T11:15:22.182Z,0.60
2023-03-19T11:17:50.984Z,0.80
2023-03-19T11:20:29.932Z,0.73
2023-03-19T11:23:02.643Z,2.20
2023-03-19T11:25:36.193Z,1.63
2023-03-19T11:28:10.155Z,1.63
2023-03-19T11:31:00.506Z,0.70
2023-03-19T11:33:48.487Z,2.00
2023-03-19T11:36:27.950Z,0.60
2023-03-19T11:39:22.249Z,1.80
2023-03-19T11:42:17.929Z,0.83
2023-03-19T11:45:08.768Z,0.80
2023-03-19T11:48:16.547Z,1.27
2023-03-19T11:50:53.415Z,0.60
2023-03-19T11:53:28.885Z,0.97
2023-03-19T11:56:15.544Z,2.20
2023-03-19T11:58:52.264Z,0.70
2023-03-19T12:01:39.370Z,0.83
2023-03-19T12:04:31.224Z,1.07
2023-03-19T12:07:05.058Z,1.73
2023-03-19T12:10:04.165Z,1.37
2023-03-19T12:13:04.490Z,1.43
2023-03-19T12:15:38.945Z,1.33
2023-03-19T12:18:45.190Z,1.10
2023-03-19T12:21:43.545Z,0.80
2023-03-19T12:24:30.478Z,0.50
2023-03-19T12:27:00.733Z,1.60
2023-03-19T12:29:50.771Z,1.93
2023-03-19T12:32:34.268Z,0.60
2023-03-19T12:35:24.093Z,2.30
2023-03-19T12:38:02.350Z,1.03
2023-03-19T12:41:10.936Z,1.60
2023-03-19T12:43:58.566Z,0.80
2023-03-19T12:46:38.309Z,1.93
2023-03-19T12:49:16.283Z,2.00
2023-03-19T12:51:55.076Z,0.60
2023-03-19T12:54:27.559Z,1.60
2023-03-19T12:57:07.643Z,1.83
2023-03-19T12:59:44.846Z,1.83
2023-03-19T13:02:31.090Z,0.77
2023-03-19T13:05:23.283Z,2.40
2023-03-19T13:08:12.339Z,0.80
2023-03-19T13:10:39.901Z,0.70
2023-03-19T13:13:19.607Z,2.13
2023-03-19T13:15:49.448Z,0.63
2023-03-19T13:19:02.685Z,0.67
2023-03-19T13:21:35.229Z,1.80
2023-03-19T13:24:10.075Z,1.93
2023-03-19T13:26:37.832Z,1.10
2023-03-19T13:29:21.804Z,1.87
2023-03-19T13:31:49.594Z,1.00
2023-03-19T13:34:22.513Z,1.67
2023-03-19T13:37:19.198Z,0.80
2023-03-19T13:39:48.681Z,0.70
2023-03-19T13:42:39.273Z,0.80
2023-03-19T13:45:38.303Z,1.37
2023-03-19T13:48:39.193Z,1.57
2023-03-19T13:51:25.954Z,1.90
2023-03-19T13:54:23.655Z,1.57
2023-03-19T13:57:03.601Z,0.83
2023-03-19T13:59:34.299Z,1.90
2023-03-19T14:02:17.597Z,1.93
2023-03-19T14:05:00.775Z,0.70
2023-03-19T14:07:37.357Z,2.03
2023-03-19T14:10:30.988Z,2.00
2023-03-19T14:13:04.016Z,2.20
2023-03-19T14:15:32.123Z,2.10
2023-03-19T14:18:06.081Z,1.93
2023-03-19T14:20:47.949Z,1.97
2023-03-19T14:23:39.538Z,0.80
2023-03-19T14:26:42.270Z,1.03
2023-03-19T14:29:14.940Z,0.80
2023-03-19T14:31:48.343Z,0.70
2023-03-19T14:34:22.278Z,0.77
2023-03-19T14:37:04.868Z,0.80
2023-03-19T14:39:35.192Z,2.00
2023-03-19T14:42:06.775Z,2.73
2023-03-19T14:45:21.143Z,2.60
2023-03-19T14:48:09.590Z,0.80
2023-03-19T14:50:56.769Z,1.80
2023-03-19T14:53:47.368Z,2.67
2023-03-19T14:56:17.258Z,0.80
2023-03-19T14:58:55.681Z,0.60
2023-03-19T15:01:27.057Z,2.00
2023-03-19T15:04:00.964Z,2.57
2023-03-19T15:06:33.789Z,2.40
2023-03-19T15:09:02.755Z,2.67
2023-03-19T15:12:13.723Z,2.70
2023-03-19T15:15:18.207Z,0.70
2023-03-19T15:17:51.720Z,0.70
2023-03-19T15:20:34.193Z,3.17
2023-03-19T15:23:03.681Z,2.50
2023-03-19T15:25:32.234Z,4.63
2023-03-19T15:28:14.821Z,2.77
2023-03-19T15:30:53.517Z,0.70
2023-03-19T15:33:39.628Z,2.17
2023-03-19T15:36:17.536Z,2.00
2023-03-19T15:39:06.236Z,0.70
2023-03-19T15:41:37.078Z,2.30
2023-03-19T15:44:07.461Z,2.70
2023-03-19T15:46:36.947Z,2.60
2023-03-19T15:49:10.865Z,2.40
2023-03-19T15:51:38.977Z,2.50
2023-03-19T15:54:07.725Z,2.10
2023-03-19T15:56:35.629Z,2.13
2023-03-19T15:59:03.931Z,2.70
2023-03-19T16:01:33.259Z,2.70
2023-03-19T16:04:22.364Z,3.93
2023-03-19T16:06:51.550Z,2.27
2023-03-19T16:09:34.007Z,2.00
2023-03-19T16:12:01.878Z,2.33
2023-03-19T16:14:43.703Z,1.47
2023-03-19T16:17:20.680Z,2.10
2023-03-19T16:19:51.426Z,0.60
2023-03-19T16:22:23.057Z,1.40
2023-03-19T16:24:51.726Z,0.60
2023-03-19T16:27:39.634Z,1.33
2023-03-19T16:30:26.917Z,2.70
2023-03-19T16:33:05.325Z,0.70
2023-03-19T16:35:34.159Z,1.97
2023-03-19T16:38:15.054Z,1.90
2023-03-19T16:40:47.788Z,2.40
2023-03-19T16:43:17.518Z,1.57
2023-03-19T16:45:45.978Z,2.00
2023-03-19T16:48:13.307Z,2.40
2023-03-19T16:50:43.802Z,2.60
2023-03-19T16:53:22.880Z,2.60
2023-03-19T16:55:50.414Z,0.67
2023-03-19T16:58:38.060Z,1.87
2023-03-19T17:01:11.839Z,2.87
2023-03-19T17:03:39.036Z,3.80
2023-03-19T17:06:06.949Z,2.67
2023-03-19T17:08:34.188Z,1.90
2023-03-19T17:11:01.531Z,0.97
2023-03-19T17:13:30.839Z,0.90
2023-03-19T17:16:03.226Z,0.70
2023-03-19T17:18:35.223Z,0.97
2023-03-19T17:21:04.516Z,1.07
2023-03-19T17:23:32.664Z,1.23
2023-03-19T17:26:00.802Z,0.80
2023-03-19T17:28:28.122Z,0.90
2023-03-19T17:30:56.056Z,0.80
2023-03-19T17:33:29.080Z,1.47
2023-03-19T17:35:58.245Z,0.60
2023-03-19T17:38:34.781Z,0.90
2023-03-19T17:41:02.873Z,1.17
2023-03-19T17:43:30.708Z,0.87
2023-03-19T17:45:58.027Z,0.70
2023-03-19T17:48:26.679Z,0.90
2023-03-19T17:50:56.322Z,0.87
2023-03-19T17:53:23.707Z,1.20
2023-03-19T17:55:51.048Z,2.60
2023-03-19T17:58:21.125Z,2.50
2023-03-19T18:00:50.105Z,3.27
2023-03-19T18:03:20.186Z,2.87
2023-03-19T18:05:47.438Z,2.70
2023-03-19T18:08:17.742Z,2.67
2023-03-19T18:10:50.618Z,2.70
2023-03-19T18:13:22.206Z,2.97
2023-03-19T18:15:50.726Z,2.60
2023-03-19T18:18:20.604Z,2.53
2023-03-19T18:20:48.623Z,3.33
2023-03-19T18:23:16.682Z,2.87
2023-03-19T18:25:45.005Z,2.30
2023-03-19T18:28:12.669Z,2.40
2023-03-19T18:30:41.222Z,1.17
2023-03-19T18:33:20.755Z,0.63
2023-03-19T18:35:48.826Z,2.80
2023-03-19T18:38:21.401Z,2.70
2023-03-19T18:40:49.822Z,2.67
2023-03-19T18:43:17.219Z,3.83
2023-03-19T18:45:48.137Z,2.17
2023-03-19T18:48:28.197Z,1.80
2023-03-19T18:50:57.554Z,2.43
2023-03-19T18:53:25.514Z,3.07
2023-03-19T18:55:53.459Z,2.60
2023-03-19T18:58:26.720Z,3.03
2023-03-19T19:00:54.657Z,2.43
2023-03-19T19:03:28.759Z,3.10
2023-03-19T19:05:56.598Z,2.60
2023-03-19T19:08:25.645Z,4.00
2023-03-19T19:10:59.581Z,3.40
2023-03-19T19:13:30.020Z,3.57
2023-03-19T19:15:57.643Z,3.17
2023-03-19T19:18:27.730Z,3.30
2023-03-19T19:20:55.058Z,3.13
2023-03-19T19:23:26.864Z,3.53
2023-03-19T19:25:57.809Z,2.87
2023-03-19T19:28:30.874Z,3.37
2023-03-19T19:31:01.747Z,2.77
2023-03-19T19:33:33.650Z,2.80
2023-03-19T19:36:02.459Z,2.50
2023-03-19T19:38:30.629Z,2.50
2023-03-19T19:41:00.579Z,3.03
2023-03-19T19:43:30.984Z,3.23
2023-03-19T19:45:59.368Z,2.70
2023-03-19T19:48:30.071Z,5.90
2023-03-19T19:50:58.031Z,3.40
2023-03-19T19:53:26.661Z,3.27
2023-03-19T19:55:54.431Z,1.97
2023-03-19T19:58:33.640Z,1.80
2023-03-19T20:01:04.271Z,3.13
2023-03-19T20:03:33.552Z,2.83
2023-03-19T20:06:02.174Z,2.77
2023-03-19T20:08:29.760Z,3.30
2023-03-19T20:10:58.099Z,3.23
2023-03-19T20:13:29.363Z,2.53
2023-03-19T20:15:58.669Z,2.67
2023-03-19T20:18:30.976Z,2.60
2023-03-19T20:20:59.731Z,6.40
2023-03-19T20:23:27.131Z,3.80
2023-03-19T20:25:55.305Z,2.27
2023-03-19T20:28:27.854Z,1.17
2023-03-19T20:30:55.729Z,2.90
2023-03-19T20:33:23.927Z,1.07
2023-03-19T20:35:52.028Z,0.80
2023-03-19T20:38:19.577Z,0.80
2023-03-19T20:40:55.205Z,0.70
2023-03-19T20:43:36.877Z,0.93
2023-03-19T20:46:06.450Z,2.83
2023-03-19T20:48:35.031Z,3.33
2023-03-19T20:51:03.788Z,2.97
2023-03-19T20:53:31.756Z,3.43
2023-03-19T20:56:00.931Z,3.50
2023-03-19T20:58:37.440Z,2.50
2023-03-19T21:01:05.280Z,3.43
2023-03-19T21:03:33.824Z,3.00
2023-03-19T21:06:07.667Z,2.40
2023-03-19T21:08:40.537Z,3.60
2023-03-19T21:11:16.661Z,2.97
2023-03-19T21:13:48.536Z,2.30
2023-03-19T21:16:24.103Z,1.43
2023-03-19T21:18:55.069Z,0.90
2023-03-19T21:21:36.376Z,0.60
2023-03-19T21:24:12.188Z,3.07
2023-03-19T21:26:41.300Z,3.27
2023-03-19T21:29:14.679Z,3.80
2023-03-19T21:31:43.057Z,3.13
2023-03-19T21:34:14.733Z,5.20
2023-03-19T21:36:42.291Z,3.07
2023-03-19T21:39:09.584Z,4.00
2023-03-19T21:42:03.636Z,3.47
2023-03-19T21:44:31.706Z,0.83
2023-03-19T21:46:59.782Z,0.73
2023-03-19T21:49:27.695Z,0.73
2023-03-19T21:51:57.256Z,0.70
2023-03-19T21:54:24.914Z,1.43
2023-03-19T21:56:52.652Z,4.93
2023-03-19T21:59:24.812Z,2.40
2023-03-19T22:01:52.898Z,1.87
2023-03-19T22:04:20.254Z,3.07
2023-03-19T22:06:49.383Z,3.03
2023-03-19T22:09:17.007Z,3.03
2023-03-19T22:11:46.353Z,3.23
2023-03-19T22:14:18.167Z,3.27
2023-03-19T22:16:47.209Z,3.93
2023-03-19T22:19:18.027Z,3.53
2023-03-19T22:21:46.293Z,2.90
2023-03-19T22:24:13.576Z,2.73
2023-03-19T22:26:43.127Z,2.60
2023-03-19T22:29:20.563Z,4.63
2023-03-19T22:31:53.003Z,3.80
2023-03-19T22:34:22.998Z,3.43
2023-03-19T22:36:50.864Z,2.93
2023-03-19T22:39:19.010Z,3.47
2023-03-19T22:41:48.352Z,3.27
2023-03-19T22:44:27.678Z,2.13
2023-03-19T22:46:56.995Z,3.57
2023-03-19T22:49:25.037Z,3.17
2023-03-19T22:51:52.298Z,3.70
2023-03-19T22:54:20.139Z,3.70
2023-03-19T22:56:47.522Z,3.47
2023-03-19T22:59:14.824Z,1.07
2023-03-19T23:01:44.906Z,0.90
2023-03-19T23:04:25.485Z,0.80
2023-03-19T23:06:54.496Z,3.53
2023-03-19T23:09:27.317Z,5.03
2023-03-19T23:11:54.906Z,4.23
2023-03-19T23:14:29.790Z,3.40
2023-03-19T23:19:32.131Z,4.23
2023-03-19T23:22:01.211Z,3.33
2023-03-19T23:24:30.796Z,3.30
2023-03-19T23:26:59.251Z,3.53
2023-03-19T23:29:33.097Z,3.77
2023-03-19T23:32:00.928Z,3.53
2023-03-19T23:34:35.336Z,3.83
2023-03-19T23:37:07.199Z,3.60
2023-03-19T23:39:35.146Z,3.37
2023-03-19T23:42:02.539Z,3.37
2023-03-19T23:44:29.808Z,4.10
2023-03-19T23:47:00.299Z,4.00
2023-03-19T23:49:30.167Z,3.47
2023-03-19T23:51:57.952Z,4.00
2023-03-19T23:54:35.321Z,2.47
2023-03-19T23:57:07.540Z,3.67
2023-03-19T23:59:39.047Z,3.47
